createdAt,value
2018-07-25T00:00:21.090Z,99735.89
2018-07-25T00:02:48.747Z,99738.80
2018-07-25T00:05:16.365Z,99733.64
2018-07-25T00:07:43.967Z,99738.57
2018-07-25T00:10:11.570Z,99734.16
2018-07-25T00:12:39.147Z,99727.26
2018-07-25T00:15:06.790Z,99732.39
2018-07-25T00:17:34.457Z,99736.92
2018-07-25T00:20:02.229Z,99735.70
2018-07-25T00:22:29.847Z,99737.74
2018-07-25T00:24:57.451Z,99733.44
2018-07-25T00:27:25.127Z,99733.45
2018-07-25T00:29:52.755Z,99729.63
2018-07-25T00:32:20.369Z,99732.61
2018-07-25T00:34:48.081Z,99733.22
2018-07-25T00:37:15.694Z,99727.86
2018-07-25T00:39:43.302Z,99730.45
2018-07-25T00:42:10.893Z,99725.18
2018-07-25T00:44:38.501Z,99734.23
2018-07-25T00:47:06.090Z,99727.66
2018-07-25T00:49:33.730Z,99729.63
2018-07-25T00:52:01.366Z,99721.67
2018-07-25T00:54:29.019Z,99721.99
2018-07-25T00:56:56.604Z,99715.39
2018-07-25T00:59:24.210Z,99712.02
2018-07-25T01:01:51.771Z,99706.92
2018-07-25T01:04:19.695Z,99713.88
2018-07-25T01:06:47.301Z,99709.63
2018-07-25T01:09:14.901Z,99708.28
2018-07-25T01:11:42.515Z,99700.99
2018-07-25T01:14:10.118Z,99705.70
2018-07-25T01:16:38.353Z,99699.56
2018-07-25T01:19:05.980Z,99708.06
2018-07-25T01:21:33.607Z,99712.58
2018-07-25T01:24:01.271Z,99704.98
2018-07-25T01:26:28.869Z,99710.70
2018-07-25T01:28:56.506Z,99706.63
2018-07-25T01:31:24.157Z,99717.63
2018-07-25T01:33:51.736Z,99716.38
2018-07-25T01:36:19.361Z,99714.08
2018-07-25T01:38:46.921Z,99714.77
2018-07-25T01:41:14.460Z,99717.31
2018-07-25T01:43:42.028Z,99720.71
2018-07-25T01:46:09.618Z,99717.44
2018-07-25T01:48:37.222Z,99720.39
2018-07-25T01:51:05.498Z,99716.43
2018-07-25T01:53:33.042Z,99716.98
2018-07-25T01:56:00.583Z,99722.34
2018-07-25T01:58:28.237Z,99715.97
2018-07-25T02:00:55.829Z,99713.86
2018-07-25T02:03:23.388Z,99717.21
2018-07-25T02:05:51.001Z,99634.73
2018-07-25T02:08:18.588Z,99714.10
2018-07-25T02:10:48.658Z,99723.36
2018-07-25T02:13:16.599Z,99721.80
2018-07-25T02:15:45.062Z,99727.25
2018-07-25T02:18:12.694Z,99726.45
2018-07-25T02:20:40.349Z,99727.81
2018-07-25T02:23:07.989Z,99725.29
2018-07-25T02:25:35.615Z,99724.95
2018-07-25T02:28:03.203Z,99725.48
2018-07-25T02:30:30.851Z,99731.34
2018-07-25T02:32:58.509Z,99733.75
2018-07-25T02:35:26.135Z,99735.69
2018-07-25T02:37:53.731Z,99730.44
2018-07-25T02:40:21.361Z,99727.80
2018-07-25T02:42:49.010Z,99738.86
2018-07-25T02:45:16.635Z,99733.94
2018-07-25T02:47:44.467Z,99739.97
2018-07-25T02:50:12.150Z,99741.03
2018-07-25T02:52:39.739Z,99740.25
2018-07-25T02:55:07.874Z,99733.11
2018-07-25T02:57:35.554Z,99748.63
2018-07-25T03:00:04.171Z,99747.05
2018-07-25T03:02:31.714Z,99744.06
2018-07-25T03:04:59.378Z,99744.66
2018-07-25T03:07:27.007Z,99740.98
2018-07-25T03:09:54.584Z,99741.67
2018-07-25T03:12:22.224Z,99741.10
2018-07-25T03:14:49.793Z,99740.41
2018-07-25T03:17:17.566Z,99743.84
2018-07-25T03:19:45.215Z,99743.41
2018-07-25T03:22:12.765Z,99755.91
2018-07-25T03:24:40.505Z,99756.05
2018-07-25T03:27:08.130Z,99767.30
2018-07-25T03:29:35.740Z,99759.14
2018-07-25T03:32:03.386Z,99755.42
2018-07-25T03:34:31.022Z,99763.79
2018-07-25T03:36:58.687Z,99761.61
2018-07-25T03:39:26.281Z,99764.30
2018-07-25T03:41:53.982Z,99760.84
2018-07-25T03:44:21.637Z,99769.51
2018-07-25T03:46:49.260Z,99773.64
2018-07-25T03:49:16.879Z,99772.34
2018-07-25T03:51:44.554Z,99775.98
2018-07-25T03:54:12.142Z,99777.36
2018-07-25T03:56:39.774Z,99775.47
2018-07-25T03:59:07.372Z,99771.48
2018-07-25T04:01:35.032Z,99781.37
2018-07-25T04:04:02.740Z,99780.50
2018-07-25T04:06:30.399Z,99784.03
2018-07-25T04:08:57.952Z,99777.48
2018-07-25T04:11:25.596Z,99776.14
2018-07-25T04:13:53.305Z,99777.48
2018-07-25T04:16:20.874Z,99779.67
2018-07-25T04:18:49.534Z,99786.97
2018-07-25T04:21:17.142Z,99782.69
2018-07-25T04:23:44.784Z,99791.03
2018-07-25T04:26:12.444Z,99790.39
2018-07-25T04:28:40.092Z,99801.23
2018-07-25T04:31:07.704Z,99803.21
2018-07-25T04:33:35.426Z,99800.30
2018-07-25T04:36:02.964Z,99801.36
2018-07-25T04:38:30.546Z,99802.27
2018-07-25T04:40:58.297Z,99803.80
2018-07-25T04:43:25.938Z,99803.36
2018-07-25T04:45:53.522Z,99801.73
2018-07-25T04:48:21.203Z,99807.38
2018-07-25T04:50:48.814Z,99808.05
2018-07-25T04:53:16.390Z,99813.57
2018-07-25T04:55:43.994Z,99810.18
2018-07-25T04:58:11.591Z,99823.16
2018-07-25T05:00:39.245Z,99818.02
2018-07-25T05:03:07.544Z,99819.88
2018-07-25T05:05:35.382Z,99825.05
2018-07-25T05:08:02.998Z,99825.05
2018-07-25T05:10:30.768Z,99826.39
2018-07-25T05:12:59.595Z,99828.11
2018-07-25T05:15:27.187Z,99826.36
2018-07-25T05:17:54.851Z,99824.83
2018-07-25T05:20:22.574Z,99822.76
2018-07-25T05:22:50.353Z,99825.36
2018-07-25T05:25:18.125Z,99823.98
2018-07-25T05:27:45.727Z,99817.71
2018-07-25T05:30:13.385Z,99825.75
2018-07-25T05:32:40.977Z,99829.69
2018-07-25T05:35:08.717Z,99824.42
2018-07-25T05:37:36.271Z,99827.70
2018-07-25T05:40:04.627Z,99821.53
2018-07-25T05:42:32.249Z,99830.05
2018-07-25T05:45:00.163Z,99827.58
2018-07-25T05:47:27.785Z,99827.78
2018-07-25T05:49:55.460Z,99832.48
2018-07-25T05:52:23.145Z,99826.64
2018-07-25T05:54:50.751Z,99829.36
2018-07-25T05:57:18.773Z,99825.86
2018-07-25T05:59:46.409Z,99828.30
2018-07-25T06:02:14.010Z,99829.84
2018-07-25T06:04:41.634Z,99825.92
2018-07-25T06:07:09.266Z,99827.01
2018-07-25T06:09:37.162Z,99831.70
2018-07-25T06:12:05.033Z,99827.77
2018-07-25T06:14:32.808Z,99823.30
2018-07-25T06:17:00.424Z,99826.69
2018-07-25T06:19:28.063Z,99828.69
2018-07-25T06:21:55.898Z,99835.83
2018-07-25T06:24:23.566Z,99839.23
2018-07-25T06:26:51.180Z,99840.25
2018-07-25T06:29:19.048Z,99838.06
2018-07-25T06:31:46.652Z,99844.66
2018-07-25T06:34:14.365Z,99835.81
2018-07-25T06:36:42.014Z,99840.67
2018-07-25T06:39:11.484Z,99847.63
2018-07-25T06:41:39.357Z,99841.61
2018-07-25T06:44:07.785Z,99839.72
2018-07-25T06:46:35.441Z,99840.23
2018-07-25T06:49:03.698Z,99845.25
2018-07-25T06:51:31.393Z,99844.43
2018-07-25T06:53:59.071Z,99853.41
2018-07-25T06:56:26.734Z,99854.83
2018-07-25T06:58:54.380Z,99850.70
2018-07-25T07:01:22.039Z,99855.05
2018-07-25T07:03:49.660Z,99861.00
2018-07-25T07:06:17.338Z,99859.09
2018-07-25T07:08:44.925Z,99861.53
2018-07-25T07:11:12.542Z,99856.69
2018-07-25T07:13:40.187Z,99856.24
2018-07-25T07:16:07.848Z,99850.49
2018-07-25T07:18:35.512Z,99858.35
2018-07-25T07:21:03.225Z,99854.85
2018-07-25T07:23:30.872Z,99857.84
2018-07-25T07:25:58.661Z,99848.57
2018-07-25T07:28:26.341Z,99856.50
2018-07-25T07:30:54.230Z,99854.70
2018-07-25T07:33:41.440Z,99856.62
2018-07-25T07:36:09.373Z,99855.67
2018-07-25T07:38:36.984Z,99858.09
2018-07-25T07:41:04.582Z,99862.61
2018-07-25T07:43:32.260Z,99860.87
2018-07-25T07:45:59.982Z,99860.84
2018-07-25T07:48:34.487Z,99867.20
2018-07-25T07:51:02.106Z,99863.47
2018-07-25T07:53:29.795Z,99872.18
2018-07-25T07:55:57.359Z,99873.38
2018-07-25T07:58:24.975Z,99873.19
2018-07-25T08:00:52.595Z,99867.48
2018-07-25T08:03:20.229Z,99876.46
2018-07-25T08:05:47.910Z,99871.65
2018-07-25T08:08:15.557Z,99875.74
2018-07-25T08:10:43.319Z,99870.94
2018-07-25T08:13:10.821Z,99877.73
2018-07-25T08:15:39.084Z,99879.44
2018-07-25T08:18:13.438Z,99877.38
2018-07-25T08:20:41.169Z,99878.34
2018-07-25T08:23:08.863Z,99873.34
2018-07-25T08:25:36.635Z,99876.22
2018-07-25T08:28:04.309Z,99882.41
2018-07-25T08:30:31.983Z,99877.64
2018-07-25T08:32:59.615Z,99878.73
2018-07-25T08:35:27.276Z,99881.38
2018-07-25T08:37:54.853Z,99871.83
2018-07-25T08:40:26.885Z,99876.34
2018-07-25T08:43:00.634Z,99877.69
2018-07-25T08:45:31.118Z,99875.97
2018-07-25T08:48:02.730Z,99874.30
2018-07-25T08:50:35.101Z,99873.33
2018-07-25T08:53:06.614Z,99869.16
2018-07-25T08:55:41.056Z,99866.56
2018-07-25T08:58:15.712Z,99862.05
2018-07-25T09:00:49.417Z,99865.48
2018-07-25T09:03:18.467Z,99860.50
2018-07-25T09:05:50.713Z,99866.83
2018-07-25T09:08:24.516Z,99858.61
2018-07-25T09:10:58.149Z,99862.66
2018-07-25T09:13:31.669Z,99861.75
2018-07-25T09:16:05.513Z,99856.73
2018-07-25T09:18:37.468Z,99855.02
2018-07-25T09:21:12.904Z,99854.91
2018-07-25T09:23:52.076Z,99861.68
2018-07-25T09:26:29.236Z,99859.13
2018-07-25T09:29:05.550Z,99864.02
2018-07-25T09:31:41.183Z,99859.81
2018-07-25T09:34:21.773Z,99860.48
2018-07-25T09:37:02.418Z,99858.76
2018-07-25T09:39:47.412Z,99857.03
2018-07-25T09:42:21.311Z,99862.78
2018-07-25T09:45:00.719Z,99858.18
2018-07-25T09:47:36.677Z,99858.38
2018-07-25T09:50:15.314Z,99860.51
2018-07-25T09:52:49.043Z,99855.77
2018-07-25T09:55:27.476Z,99862.17
2018-07-25T09:58:01.380Z,99859.11
2018-07-25T10:00:41.079Z,99864.52
2018-07-25T10:03:20.028Z,99858.37
2018-07-25T10:06:01.725Z,99855.30
2018-07-25T10:08:38.289Z,99850.36
2018-07-25T10:11:12.757Z,99849.34
2018-07-25T10:13:48.937Z,99847.30
2018-07-25T10:16:23.441Z,99844.02
2018-07-25T10:19:01.435Z,99844.30
2018-07-25T10:21:49.787Z,99846.80
2018-07-25T10:24:26.927Z,99841.64
2018-07-25T10:27:01.115Z,99844.20
2018-07-25T10:29:34.945Z,99836.36
2018-07-25T10:32:09.246Z,99836.56
2018-07-25T10:34:44.738Z,99835.90
2018-07-25T10:37:18.900Z,99839.52
2018-07-25T10:39:55.115Z,99838.88
2018-07-25T10:42:29.604Z,99833.27
2018-07-25T10:45:03.861Z,99829.89
2018-07-25T10:47:41.860Z,99832.55
2018-07-25T10:50:19.871Z,99827.33
2018-07-25T10:52:58.292Z,99826.59
2018-07-25T10:55:41.621Z,99825.91
2018-07-25T10:58:14.949Z,99822.50
2018-07-25T11:00:48.559Z,99821.39
2018-07-25T11:03:30.576Z,99816.41
2018-07-25T11:06:06.366Z,99823.85
2018-07-25T11:08:44.754Z,99822.62
2018-07-25T11:11:21.053Z,99824.77
2018-07-25T11:13:56.462Z,99813.95
2018-07-25T11:16:30.970Z,99812.21
2018-07-25T11:19:05.385Z,99811.00
2018-07-25T11:21:40.418Z,99813.52
2018-07-25T11:24:24.437Z,99800.43
2018-07-25T11:26:59.656Z,99800.54
2018-07-25T11:29:37.975Z,99800.54
2018-07-25T11:32:05.801Z,99793.08
2018-07-25T11:34:33.452Z,99797.30
2018-07-25T11:37:01.185Z,99794.50
2018-07-25T11:39:29.274Z,99792.11
2018-07-25T11:41:56.944Z,99791.58
2018-07-25T11:44:24.497Z,99787.29
2018-07-25T11:46:52.121Z,99789.59
2018-07-25T11:49:19.735Z,99787.19
2018-07-25T11:51:47.405Z,99790.23
2018-07-25T11:54:15.287Z,99789.17
2018-07-25T11:56:42.928Z,99784.27
2018-07-25T11:59:10.470Z,99785.15
2018-07-25T12:01:38.212Z,99782.71
2018-07-25T12:04:05.845Z,99790.33
2018-07-25T12:06:33.512Z,99783.83
2018-07-25T12:09:01.176Z,99779.47
2018-07-25T12:11:28.842Z,99775.63
2018-07-25T12:13:56.412Z,99779.97
2018-07-25T12:16:24.038Z,99771.47
2018-07-25T12:18:51.666Z,99769.52
2018-07-25T12:21:19.432Z,99774.49
2018-07-25T12:23:46.958Z,99772.90
2018-07-25T12:26:14.674Z,99769.88
2018-07-25T12:28:42.325Z,99766.86
2018-07-25T12:31:09.946Z,99769.06
2018-07-25T12:33:37.601Z,99767.17
2018-07-25T12:36:05.729Z,99769.31
2018-07-25T12:38:33.335Z,99771.17
2018-07-25T12:41:00.959Z,99771.58
2018-07-25T12:43:28.623Z,99760.38
2018-07-25T12:45:56.261Z,99764.60
2018-07-25T12:48:23.958Z,99759.20
2018-07-25T12:50:51.593Z,99753.30
2018-07-25T12:53:19.334Z,99751.73
2018-07-25T12:55:46.941Z,99747.36
2018-07-25T12:58:21.415Z,99753.26
2018-07-25T13:00:50.507Z,99750.41
2018-07-25T13:03:18.181Z,99741.58
2018-07-25T13:05:47.326Z,99742.48
2018-07-25T13:08:14.970Z,99740.14
2018-07-25T13:10:42.602Z,99741.18
2018-07-25T13:13:10.372Z,99731.73
2018-07-25T13:15:38.088Z,99735.27
2018-07-25T13:18:05.829Z,99722.95
2018-07-25T13:20:33.654Z,99726.41
2018-07-25T13:23:01.435Z,99726.59
2018-07-25T13:25:29.133Z,99721.16
2018-07-25T13:27:56.935Z,99719.92
2018-07-25T13:30:24.671Z,99728.80
2018-07-25T13:32:52.409Z,99716.59
2018-07-25T13:35:20.073Z,99716.92
2018-07-25T13:37:47.711Z,99712.82
2018-07-25T13:40:15.427Z,99718.94
2018-07-25T13:42:43.115Z,99699.69
2018-07-25T13:45:10.854Z,99705.86
2018-07-25T13:47:38.640Z,99707.36
2018-07-25T13:50:06.399Z,99701.91
2018-07-25T13:52:34.245Z,99692.23
2018-07-25T13:55:01.955Z,99690.77
2018-07-25T13:57:29.736Z,99693.81
2018-07-25T13:59:57.451Z,99689.81
2018-07-25T14:02:25.076Z,99683.73
2018-07-25T14:04:52.821Z,99687.84
2018-07-25T14:07:20.404Z,99678.22
2018-07-25T14:09:48.064Z,99682.52
2018-07-25T14:12:16.166Z,99678.70
2018-07-25T14:14:43.939Z,99677.52
2018-07-25T14:17:11.709Z,99678.33
2018-07-25T14:19:39.338Z,99677.53
2018-07-25T14:22:07.058Z,99675.14
2018-07-25T14:24:34.787Z,99677.33
2018-07-25T14:27:02.360Z,99677.38
2018-07-25T14:29:30.054Z,99676.00
2018-07-25T14:31:57.650Z,99664.10
2018-07-25T14:34:25.621Z,99670.31
2018-07-25T14:36:53.286Z,99671.98
2018-07-25T14:39:21.061Z,99667.15
2018-07-25T14:41:48.749Z,99669.48
2018-07-25T14:44:16.423Z,99660.66
2018-07-25T14:46:44.278Z,99665.80
2018-07-25T14:49:11.969Z,99653.59
2018-07-25T14:51:39.651Z,99667.67
2018-07-25T14:54:07.303Z,99660.19
2018-07-25T14:56:34.992Z,99660.86
2018-07-25T14:59:03.117Z,99666.70
2018-07-25T15:01:30.825Z,99663.22
2018-07-25T15:03:58.498Z,99666.41
2018-07-25T15:06:26.149Z,99662.59
2018-07-25T15:08:53.905Z,99654.34
2018-07-25T15:11:21.605Z,99654.20
2018-07-25T15:13:49.282Z,99654.91
2018-07-25T15:16:17.280Z,99666.58
2018-07-25T15:18:44.918Z,99664.67
2018-07-25T15:21:12.518Z,99664.41
2018-07-25T15:23:56.111Z,99667.01
2018-07-25T15:26:23.840Z,99675.30
2018-07-25T15:28:51.518Z,99667.55
2018-07-25T15:31:19.364Z,99657.59
2018-07-25T15:33:47.226Z,99646.96
2018-07-25T15:36:50.935Z,99644.14
2018-07-25T15:39:20.985Z,99663.09
2018-07-25T15:41:49.445Z,99672.23
2018-07-25T15:44:18.117Z,99686.66
2018-07-25T15:46:45.814Z,99697.45
2018-07-25T15:49:13.493Z,99722.41
2018-07-25T15:51:41.210Z,99726.41
2018-07-25T15:54:08.909Z,99714.11
2018-07-25T15:56:37.181Z,99712.67
2018-07-25T15:59:05.148Z,99720.44
2018-07-25T16:01:33.028Z,99715.53
2018-07-25T16:04:01.233Z,99720.43
2018-07-25T16:06:29.633Z,99722.82
2018-07-25T16:08:57.524Z,99722.73
2018-07-25T16:11:25.319Z,99734.31
2018-07-25T16:13:53.027Z,99715.22
2018-07-25T16:16:21.079Z,99712.68
2018-07-25T16:18:49.311Z,99715.61
2018-07-25T16:21:17.703Z,99720.59
2018-07-25T16:23:45.397Z,99729.03
2018-07-25T16:26:13.174Z,99728.75
2018-07-25T16:28:40.955Z,99729.51
2018-07-25T16:31:09.686Z,99735.52
2018-07-25T16:33:37.482Z,99717.92
2018-07-25T16:36:05.560Z,99726.41
2018-07-25T16:38:33.254Z,99721.86
2018-07-25T16:41:00.947Z,99715.67
2018-07-25T16:43:28.665Z,99716.60
2018-07-25T16:45:56.328Z,99714.74
2018-07-25T16:48:24.046Z,99726.97
2018-07-25T16:50:51.671Z,99726.64
2018-07-25T16:53:19.436Z,99736.63
2018-07-25T16:55:47.304Z,99739.73
2018-07-25T16:58:14.982Z,99737.50
2018-07-25T17:00:42.628Z,99735.55
2018-07-25T17:03:10.287Z,99734.09
2018-07-25T17:05:38.285Z,99734.22
2018-07-25T17:08:06.140Z,99744.48
2018-07-25T17:10:34.826Z,99741.76
2018-07-25T17:13:02.583Z,99737.00
2018-07-25T17:15:30.329Z,99746.69
2018-07-25T17:17:58.231Z,99735.06
2018-07-25T17:20:26.108Z,99743.73
2018-07-25T17:22:54.299Z,99732.65
2018-07-25T17:25:22.117Z,99730.09
2018-07-25T17:27:49.839Z,99730.30
2018-07-25T17:30:17.696Z,99725.55
2018-07-25T17:32:45.409Z,99732.95
2018-07-25T17:35:13.176Z,99729.19
2018-07-25T17:37:40.959Z,99724.08
2018-07-25T17:40:08.705Z,99726.74
2018-07-25T17:42:36.453Z,99733.70
2018-07-25T17:45:07.145Z,99736.58
2018-07-25T17:47:35.902Z,99734.30
2018-07-25T17:50:05.254Z,99731.39
2018-07-25T17:52:33.168Z,99737.69
2018-07-25T17:55:01.011Z,99742.75
2018-07-25T17:57:28.757Z,99740.83
2018-07-25T17:59:56.703Z,99747.74
2018-07-25T18:02:24.559Z,99749.89
2018-07-25T18:04:52.330Z,99746.17
2018-07-25T18:07:20.074Z,99742.50
2018-07-25T18:09:47.890Z,99737.44
2018-07-25T18:12:15.618Z,99742.97
2018-07-25T18:14:43.608Z,99747.58
2018-07-25T18:17:11.470Z,99768.33
2018-07-25T18:19:39.272Z,99762.19
2018-07-25T18:22:07.367Z,99764.61
2018-07-25T18:24:35.244Z,99765.02
2018-07-25T18:27:02.963Z,99778.91
2018-07-25T18:29:30.902Z,99778.64
2018-07-25T18:31:58.835Z,99769.77
2018-07-25T18:34:26.638Z,99773.67
2018-07-25T18:36:54.416Z,99777.73
2018-07-25T18:39:22.294Z,99771.23
2018-07-25T18:41:50.070Z,99772.31
2018-07-25T18:44:19.000Z,99781.92
2018-07-25T18:46:46.782Z,99778.05
2018-07-25T18:49:15.025Z,99780.70
2018-07-25T18:51:42.886Z,99773.42
2018-07-25T18:54:11.056Z,99770.64
2018-07-25T18:56:39.874Z,99769.98
2018-07-25T18:59:07.630Z,99779.00
2018-07-25T19:01:35.341Z,99778.97
2018-07-25T19:04:03.122Z,99760.95
2018-07-25T19:06:31.084Z,99785.64
2018-07-25T19:08:59.014Z,99777.95
2018-07-25T19:11:27.744Z,99781.75
2018-07-25T19:14:01.421Z,99785.00
2018-07-25T19:16:29.170Z,99784.80
2018-07-25T19:18:57.218Z,99787.81
2018-07-25T19:21:26.725Z,99784.63
2018-07-25T19:23:54.855Z,99779.93
2018-07-25T19:26:22.650Z,99788.74
2018-07-25T19:28:50.489Z,99791.67
2018-07-25T19:31:18.634Z,99790.44
2018-07-25T19:33:46.490Z,99792.50
2018-07-25T19:36:14.260Z,99792.50
2018-07-25T19:38:42.724Z,99792.16
2018-07-25T19:41:10.746Z,99797.38
2018-07-25T19:43:38.548Z,99789.90
2018-07-25T19:46:06.578Z,99797.61
2018-07-25T19:48:34.436Z,99797.83
2018-07-25T19:51:02.230Z,99799.48
2018-07-25T19:53:29.968Z,99796.52
2018-07-25T19:55:59.581Z,99800.33
2018-07-25T19:58:27.637Z,99799.81
2018-07-25T20:00:55.441Z,99797.94
2018-07-25T20:03:23.180Z,99798.65
2018-07-25T20:05:50.921Z,99803.30
2018-07-25T20:08:18.535Z,99799.11
2018-07-25T20:10:46.344Z,99792.91
2018-07-25T20:13:14.308Z,99793.36
2018-07-25T20:15:47.857Z,99794.36
2018-07-25T20:18:15.581Z,99789.50
2018-07-25T20:20:44.055Z,99797.31
2018-07-25T20:23:11.948Z,99793.92
2018-07-25T20:25:39.708Z,99790.66
2018-07-25T20:28:07.823Z,99803.31
2018-07-25T20:30:35.638Z,99799.52
2018-07-25T20:33:03.371Z,99795.27
2018-07-25T20:35:31.202Z,99794.75
2018-07-25T20:38:05.886Z,99795.00
2018-07-25T20:40:33.639Z,99788.50
2018-07-25T20:43:01.513Z,99795.22
2018-07-25T20:45:29.297Z,99799.75
2018-07-25T20:47:56.975Z,99800.91
2018-07-25T20:50:25.547Z,99800.27
2018-07-25T20:52:53.242Z,99802.36
2018-07-25T20:55:21.129Z,99797.59
2018-07-25T20:57:48.814Z,99796.08
2018-07-25T21:00:19.239Z,99800.30
2018-07-25T21:02:46.947Z,99803.58
2018-07-25T21:05:14.771Z,99802.35
2018-07-25T21:07:42.634Z,99801.88
2018-07-25T21:10:10.263Z,99807.83
2018-07-25T21:12:37.942Z,99805.78
2018-07-25T21:15:05.679Z,99810.11
2018-07-25T21:17:33.404Z,99806.72
2018-07-25T21:20:01.070Z,99818.98
2018-07-25T21:22:28.734Z,99820.83
2018-07-25T21:24:56.453Z,99818.03
2018-07-25T21:27:24.240Z,99821.73
2018-07-25T21:29:51.874Z,99827.48
2018-07-25T21:32:19.524Z,99830.66
2018-07-25T21:34:47.568Z,99834.27
2018-07-25T21:37:15.201Z,99842.20
2018-07-25T21:39:42.996Z,99837.67
2018-07-25T21:42:10.670Z,99842.30
2018-07-25T21:44:38.684Z,99845.25
2018-07-25T21:47:06.501Z,99845.27
2018-07-25T21:49:34.211Z,99842.63
2018-07-25T21:52:02.065Z,99842.02
2018-07-25T21:54:29.718Z,99844.18
2018-07-25T21:56:57.635Z,99834.88
2018-07-25T21:59:25.415Z,99843.64
2018-07-25T22:01:53.659Z,99843.23
2018-07-25T22:04:21.257Z,99846.09
2018-07-25T22:06:48.933Z,99850.19
2018-07-25T22:09:16.608Z,99851.44
2018-07-25T22:11:44.249Z,99855.59
2018-07-25T22:14:11.873Z,99852.41
2018-07-25T22:16:39.858Z,99854.72
2018-07-25T22:19:07.657Z,99854.36
2018-07-25T22:21:35.292Z,99853.17
2018-07-25T22:24:03.049Z,99856.86
2018-07-25T22:26:30.701Z,99854.27
2018-07-25T22:28:58.633Z,99853.52
2018-07-25T22:31:26.314Z,99847.80
2018-07-25T22:33:54.055Z,99854.41
2018-07-25T22:36:21.971Z,99856.37
2018-07-25T22:38:49.569Z,99854.03
2018-07-25T22:41:17.258Z,99859.48
2018-07-25T22:43:44.876Z,99848.55
2018-07-25T22:46:12.634Z,99857.93
2018-07-25T22:48:40.340Z,99864.92
2018-07-25T22:51:07.952Z,99860.98
2018-07-25T22:53:35.570Z,99858.94
2018-07-25T22:56:03.202Z,99855.89
2018-07-25T22:58:30.831Z,99858.64
2018-07-25T23:00:58.718Z,99853.42
2018-07-25T23:03:26.484Z,99861.65
2018-07-25T23:05:54.105Z,99857.32
2018-07-25T23:08:22.011Z,99863.27
2018-07-25T23:10:49.618Z,99857.44
2018-07-25T23:13:17.258Z,99860.68
2018-07-25T23:15:44.853Z,99855.84
2018-07-25T23:18:12.635Z,99855.16
2018-07-25T23:20:40.265Z,99856.81
2018-07-25T23:23:07.934Z,99858.66
2018-07-25T23:25:35.659Z,99858.47
2018-07-25T23:28:03.384Z,99860.09
2018-07-25T23:30:31.040Z,99852.30
2018-07-25T23:33:05.486Z,99852.01
2018-07-25T23:35:33.159Z,99856.19
2018-07-25T23:38:00.780Z,99855.97
2018-07-25T23:40:28.321Z,99855.78
2018-07-25T23:42:55.947Z,99856.86
2018-07-25T23:45:23.687Z,99850.19
2018-07-25T23:47:51.329Z,99850.10
2018-07-25T23:50:19.019Z,99846.81
2018-07-25T23:52:46.622Z,99849.30
2018-07-25T23:55:14.257Z,99847.34
2018-07-25T23:57:41.969Z,99841.69
